sensor_id;sensor_type;location;lat;lon;timestamp;P1;durP1;ratioP1;P2;durP2;ratioP2
69280;SDS011;56392;51.082;17.080;2022-07-04T00:01:21;9.63;;;5.90;;
69280;SDS011;56392;51.082;17.080;2022-07-04T00:06:23;9.77;;;5.55;;
69280;SDS011;56392;51.082;17.080;2022-07-04T00:11:27;11.20;;;5.88;;
69280;SDS011;56392;51.082;17.080;2022-07-04T00:16:30;11.07;;;6.13;;
69280;SDS011;56392;51.082;17.080;2022-07-04T00:21:32;10.82;;;5.70;;
69280;SDS011;56392;51.082;17.080;2022-07-04T00:26:36;10.60;;;6.40;;
69280;SDS011;56392;51.082;17.080;2022-07-04T00:31:39;11.60;;;6.20;;
69280;SDS011;56392;51.082;17.080;2022-07-04T00:36:42;11.33;;;6.60;;
69280;SDS011;56392;51.082;17.080;2022-07-04T00:41:46;11.27;;;6.47;;
69280;SDS011;56392;51.082;17.080;2022-07-04T00:46:49;12.20;;;6.63;;
69280;SDS011;56392;51.082;17.080;2022-07-04T00:51:52;11.87;;;7.43;;
69280;SDS011;56392;51.082;17.080;2022-07-04T00:56:56;12.45;;;6.93;;
69280;SDS011;56392;51.082;17.080;2022-07-04T01:02:00;13.43;;;7.80;;
69280;SDS011;56392;51.082;17.080;2022-07-04T01:07:03;10.97;;;7.40;;
69280;SDS011;56392;51.082;17.080;2022-07-04T01:12:08;13.25;;;7.70;;
69280;SDS011;56392;51.082;17.080;2022-07-04T01:17:10;11.00;;;7.30;;
69280;SDS011;56392;51.082;17.080;2022-07-04T01:22:14;12.97;;;8.20;;
69280;SDS011;56392;51.082;17.080;2022-07-04T01:27:17;12.50;;;6.97;;
69280;SDS011;56392;51.082;17.080;2022-07-04T01:32:20;11.00;;;6.90;;
69280;SDS011;56392;51.082;17.080;2022-07-04T01:37:24;11.98;;;6.68;;
69280;SDS011;56392;51.082;17.080;2022-07-04T01:42:27;12.87;;;7.40;;
69280;SDS011;56392;51.082;17.080;2022-07-04T01:47:30;11.95;;;7.10;;
69280;SDS011;56392;51.082;17.080;2022-07-04T01:52:35;13.15;;;7.70;;
69280;SDS011;56392;51.082;17.080;2022-07-04T01:57:38;10.70;;;7.43;;
69280;SDS011;56392;51.082;17.080;2022-07-04T02:02:42;14.70;;;8.23;;
69280;SDS011;56392;51.082;17.080;2022-07-04T02:07:46;11.52;;;7.68;;
69280;SDS011;56392;51.082;17.080;2022-07-04T02:12:50;13.37;;;8.67;;
69280;SDS011;56392;51.082;17.080;2022-07-04T02:18:07;13.57;;;8.37;;
69280;SDS011;56392;51.082;17.080;2022-07-04T02:23:12;12.73;;;8.25;;
69280;SDS011;56392;51.082;17.080;2022-07-04T02:28:15;13.10;;;8.95;;
69280;SDS011;56392;51.082;17.080;2022-07-04T02:33:19;14.20;;;7.67;;
69280;SDS011;56392;51.082;17.080;2022-07-04T02:38:23;13.30;;;7.53;;
69280;SDS011;56392;51.082;17.080;2022-07-04T02:43:25;12.55;;;7.45;;
69280;SDS011;56392;51.082;17.080;2022-07-04T02:48:28;13.67;;;7.70;;
69280;SDS011;56392;51.082;17.080;2022-07-04T02:53:32;10.82;;;7.22;;
69280;SDS011;56392;51.082;17.080;2022-07-04T02:58:35;13.55;;;8.13;;
69280;SDS011;56392;51.082;17.080;2022-07-04T03:03:37;14.47;;;8.27;;
69280;SDS011;56392;51.082;17.080;2022-07-04T03:08:41;13.43;;;8.17;;
69280;SDS011;56392;51.082;17.080;2022-07-04T03:13:44;14.55;;;7.88;;
69280;SDS011;56392;51.082;17.080;2022-07-04T03:18:47;11.18;;;7.72;;
69280;SDS011;56392;51.082;17.080;2022-07-04T03:23:51;12.63;;;8.47;;
69280;SDS011;56392;51.082;17.080;2022-07-04T03:28:59;11.48;;;7.30;;
69280;SDS011;56392;51.082;17.080;2022-07-04T03:34:02;12.23;;;7.70;;
69280;SDS011;56392;51.082;17.080;2022-07-04T03:39:07;14.13;;;8.33;;
69280;SDS011;56392;51.082;17.080;2022-07-04T03:44:09;14.48;;;8.15;;
69280;SDS011;56392;51.082;17.080;2022-07-04T03:49:12;13.48;;;8.48;;
69280;SDS011;56392;51.082;17.080;2022-07-04T03:54:16;13.53;;;8.13;;
69280;SDS011;56392;51.082;17.080;2022-07-04T03:59:18;15.03;;;8.60;;
69280;SDS011;56392;51.082;17.080;2022-07-04T04:04:21;13.50;;;8.70;;
69280;SDS011;56392;51.082;17.080;2022-07-04T04:09:42;12.90;;;8.30;;
69280;SDS011;56392;51.082;17.080;2022-07-04T04:14:45;12.73;;;7.83;;
69280;SDS011;56392;51.082;17.080;2022-07-04T04:19:47;13.25;;;7.93;;
69280;SDS011;56392;51.082;17.080;2022-07-04T04:24:51;13.88;;;8.10;;
69280;SDS011;56392;51.082;17.080;2022-07-04T04:29:54;13.90;;;7.93;;
69280;SDS011;56392;51.082;17.080;2022-07-04T04:34:57;12.60;;;7.63;;
69280;SDS011;56392;51.082;17.080;2022-07-04T04:40:01;13.48;;;7.15;;
69280;SDS011;56392;51.082;17.080;2022-07-04T04:45:05;11.40;;;6.67;;
69280;SDS011;56392;51.082;17.080;2022-07-04T04:50:08;11.53;;;6.87;;
69280;SDS011;56392;51.082;17.080;2022-07-04T04:55:14;13.35;;;6.55;;
69280;SDS011;56392;51.082;17.080;2022-07-04T05:00:17;14.98;;;6.82;;
69280;SDS011;56392;51.082;17.080;2022-07-04T05:05:20;12.90;;;5.97;;
69280;SDS011;56392;51.082;17.080;2022-07-04T05:10:24;15.98;;;6.40;;
69280;SDS011;56392;51.082;17.080;2022-07-04T05:15:26;15.50;;;6.28;;
69280;SDS011;56392;51.082;17.080;2022-07-04T05:20:29;11.67;;;5.10;;
69280;SDS011;56392;51.082;17.080;2022-07-04T05:25:33;12.35;;;4.57;;
69280;SDS011;56392;51.082;17.080;2022-07-04T05:30:36;9.00;;;4.43;;
69280;SDS011;56392;51.082;17.080;2022-07-04T05:35:39;11.70;;;4.20;;
69280;SDS011;56392;51.082;17.080;2022-07-04T05:40:43;8.60;;;4.67;;
69280;SDS011;56392;51.082;17.080;2022-07-04T05:45:45;8.20;;;3.47;;
69280;SDS011;56392;51.082;17.080;2022-07-04T05:50:49;7.97;;;3.50;;
69280;SDS011;56392;51.082;17.080;2022-07-04T05:55:53;8.57;;;3.50;;
69280;SDS011;56392;51.082;17.080;2022-07-04T06:00:56;7.93;;;3.47;;
69280;SDS011;56392;51.082;17.080;2022-07-04T06:05:59;7.85;;;3.50;;
69280;SDS011;56392;51.082;17.080;2022-07-04T06:11:03;9.50;;;3.10;;
69280;SDS011;56392;51.082;17.080;2022-07-04T06:16:06;10.73;;;3.20;;
69280;SDS011;56392;51.082;17.080;2022-07-04T06:21:08;10.65;;;3.60;;
69280;SDS011;56392;51.082;17.080;2022-07-04T06:26:12;8.75;;;3.50;;
69280;SDS011;56392;51.082;17.080;2022-07-04T06:31:15;11.60;;;3.43;;
69280;SDS011;56392;51.082;17.080;2022-07-04T06:36:18;9.57;;;3.40;;
69280;SDS011;56392;51.082;17.080;2022-07-04T06:41:22;9.70;;;3.20;;
69280;SDS011;56392;51.082;17.080;2022-07-04T06:46:25;9.80;;;2.87;;
69280;SDS011;56392;51.082;17.080;2022-07-04T06:51:28;9.65;;;2.90;;
69280;SDS011;56392;51.082;17.080;2022-07-04T06:56:32;8.35;;;2.80;;
69280;SDS011;56392;51.082;17.080;2022-07-04T07:01:34;11.73;;;2.93;;
69280;SDS011;56392;51.082;17.080;2022-07-04T07:06:37;6.25;;;2.78;;
69280;SDS011;56392;51.082;17.080;2022-07-04T07:11:41;8.90;;;3.10;;
69280;SDS011;56392;51.082;17.080;2022-07-04T07:16:44;7.45;;;3.10;;
69280;SDS011;56392;51.082;17.080;2022-07-04T07:21:46;7.33;;;2.67;;
69280;SDS011;56392;51.082;17.080;2022-07-04T07:26:50;9.23;;;3.42;;
69280;SDS011;56392;51.082;17.080;2022-07-04T07:31:53;8.88;;;3.00;;
69280;SDS011;56392;51.082;17.080;2022-07-04T07:36:56;9.10;;;2.90;;
69280;SDS011;56392;51.082;17.080;2022-07-04T07:42:00;8.93;;;3.08;;
69280;SDS011;56392;51.082;17.080;2022-07-04T07:47:03;9.35;;;3.22;;
69280;SDS011;56392;51.082;17.080;2022-07-04T07:52:06;10.33;;;3.27;;
69280;SDS011;56392;51.082;17.080;2022-07-04T07:57:10;13.65;;;3.33;;
69280;SDS011;56392;51.082;17.080;2022-07-04T08:02:13;12.18;;;3.00;;
69280;SDS011;56392;51.082;17.080;2022-07-04T08:07:16;9.15;;;3.65;;
69280;SDS011;56392;51.082;17.080;2022-07-04T08:12:20;9.43;;;3.20;;
69280;SDS011;56392;51.082;17.080;2022-07-04T08:17:23;10.18;;;3.35;;
69280;SDS011;56392;51.082;17.080;2022-07-04T08:22:26;8.02;;;3.40;;
69280;SDS011;56392;51.082;17.080;2022-07-04T08:27:30;7.20;;;3.10;;
69280;SDS011;56392;51.082;17.080;2022-07-04T08:32:33;10.60;;;3.35;;
69280;SDS011;56392;51.082;17.080;2022-07-04T08:37:35;7.97;;;2.80;;
69280;SDS011;56392;51.082;17.080;2022-07-04T08:42:39;7.97;;;2.73;;
69280;SDS011;56392;51.082;17.080;2022-07-04T08:47:42;10.45;;;2.80;;
69280;SDS011;56392;51.082;17.080;2022-07-04T08:52:47;11.15;;;3.20;;
69280;SDS011;56392;51.082;17.080;2022-07-04T08:57:57;13.77;;;3.63;;
69280;SDS011;56392;51.082;17.080;2022-07-04T09:03:18;7.50;;;3.37;;
69280;SDS011;56392;51.082;17.080;2022-07-04T09:08:21;13.80;;;3.75;;
69280;SDS011;56392;51.082;17.080;2022-07-04T09:13:26;8.57;;;3.80;;
69280;SDS011;56392;51.082;17.080;2022-07-04T09:18:29;6.83;;;3.37;;
69280;SDS011;56392;51.082;17.080;2022-07-04T09:23:34;9.18;;;3.70;;
69280;SDS011;56392;51.082;17.080;2022-07-04T09:28:40;8.88;;;3.65;;
69280;SDS011;56392;51.082;17.080;2022-07-04T09:33:48;12.50;;;3.90;;
69280;SDS011;56392;51.082;17.080;2022-07-04T09:39:03;10.32;;;3.90;;
69280;SDS011;56392;51.082;17.080;2022-07-04T09:44:09;9.07;;;4.32;;
69280;SDS011;56392;51.082;17.080;2022-07-04T09:49:12;9.38;;;4.18;;
69280;SDS011;56392;51.082;17.080;2022-07-04T09:54:16;15.17;;;4.70;;
69280;SDS011;56392;51.082;17.080;2022-07-04T09:59:26;8.68;;;4.50;;
69280;SDS011;56392;51.082;17.080;2022-07-04T10:04:40;12.38;;;4.47;;
69280;SDS011;56392;51.082;17.080;2022-07-04T10:09:44;8.67;;;4.27;;
69280;SDS011;56392;51.082;17.080;2022-07-04T10:14:48;15.93;;;4.63;;
69280;SDS011;56392;51.082;17.080;2022-07-04T10:19:51;12.98;;;4.60;;
69280;SDS011;56392;51.082;17.080;2022-07-04T10:24:54;10.70;;;5.17;;
69280;SDS011;56392;51.082;17.080;2022-07-04T10:29:59;8.85;;;4.93;;
69280;SDS011;56392;51.082;17.080;2022-07-04T10:35:04;8.43;;;4.82;;
69280;SDS011;56392;51.082;17.080;2022-07-04T10:40:08;10.45;;;4.90;;
69280;SDS011;56392;51.082;17.080;2022-07-04T10:45:16;10.83;;;5.00;;
69280;SDS011;56392;51.082;17.080;2022-07-04T10:50:34;9.98;;;5.28;;
69280;SDS011;56392;51.082;17.080;2022-07-04T10:55:37;13.85;;;4.60;;
69280;SDS011;56392;51.082;17.080;2022-07-04T11:00:42;9.23;;;4.83;;
69280;SDS011;56392;51.082;17.080;2022-07-04T11:11:54;9.63;;;4.50;;
69280;SDS011;56392;51.082;17.080;2022-07-04T11:16:59;11.90;;;4.70;;
69280;SDS011;56392;51.082;17.080;2022-07-04T11:22:02;10.57;;;4.22;;
69280;SDS011;56392;51.082;17.080;2022-07-04T11:27:07;10.38;;;4.20;;
69280;SDS011;56392;51.082;17.080;2022-07-04T11:32:12;11.48;;;4.60;;
69280;SDS011;56392;51.082;17.080;2022-07-04T11:37:14;8.77;;;4.00;;
69280;SDS011;56392;51.082;17.080;2022-07-04T11:42:17;10.48;;;4.20;;
69280;SDS011;56392;51.082;17.080;2022-07-04T11:47:39;9.05;;;4.30;;
69280;SDS011;56392;51.082;17.080;2022-07-04T11:52:45;7.60;;;4.23;;
69280;SDS011;56392;51.082;17.080;2022-07-04T11:57:49;9.02;;;4.40;;
69280;SDS011;56392;51.082;17.080;2022-07-04T12:02:57;10.48;;;4.22;;
69280;SDS011;56392;51.082;17.080;2022-07-04T12:08:02;9.43;;;4.20;;
69280;SDS011;56392;51.082;17.080;2022-07-04T12:13:07;8.45;;;4.30;;
69280;SDS011;56392;51.082;17.080;2022-07-04T12:18:18;10.55;;;4.43;;
69280;SDS011;56392;51.082;17.080;2022-07-04T12:23:22;7.55;;;3.88;;
69280;SDS011;56392;51.082;17.080;2022-07-04T12:28:33;9.10;;;3.80;;
69280;SDS011;56392;51.082;17.080;2022-07-04T12:33:38;8.80;;;3.92;;
69280;SDS011;56392;51.082;17.080;2022-07-04T12:38:41;8.75;;;3.90;;
69280;SDS011;56392;51.082;17.080;2022-07-04T12:43:46;9.03;;;3.70;;
69280;SDS011;56392;51.082;17.080;2022-07-04T12:48:53;6.93;;;3.30;;
69280;SDS011;56392;51.082;17.080;2022-07-04T12:53:57;7.15;;;3.38;;
69280;SDS011;56392;51.082;17.080;2022-07-04T12:59:01;9.80;;;3.90;;
69280;SDS011;56392;51.082;17.080;2022-07-04T13:04:07;10.23;;;3.75;;
69280;SDS011;56392;51.082;17.080;2022-07-04T13:09:10;7.72;;;3.88;;
69280;SDS011;56392;51.082;17.080;2022-07-04T13:14:13;8.35;;;3.90;;
69280;SDS011;56392;51.082;17.080;2022-07-04T13:19:17;13.47;;;3.90;;
69280;SDS011;56392;51.082;17.080;2022-07-04T13:24:19;11.55;;;3.70;;
69280;SDS011;56392;51.082;17.080;2022-07-04T13:29:22;11.90;;;4.00;;
69280;SDS011;56392;51.082;17.080;2022-07-04T13:34:26;9.50;;;3.67;;
69280;SDS011;56392;51.082;17.080;2022-07-04T13:39:29;8.70;;;3.50;;
69280;SDS011;56392;51.082;17.080;2022-07-04T13:44:32;9.20;;;3.38;;
69280;SDS011;56392;51.082;17.080;2022-07-04T13:49:37;9.93;;;3.70;;
69280;SDS011;56392;51.082;17.080;2022-07-04T13:54:40;10.50;;;3.85;;
69280;SDS011;56392;51.082;17.080;2022-07-04T13:59:42;8.93;;;3.53;;
69280;SDS011;56392;51.082;17.080;2022-07-04T14:04:46;7.80;;;3.50;;
69280;SDS011;56392;51.082;17.080;2022-07-04T14:09:49;10.53;;;3.30;;
69280;SDS011;56392;51.082;17.080;2022-07-04T14:14:52;9.77;;;3.30;;
69280;SDS011;56392;51.082;17.080;2022-07-04T14:19:56;9.35;;;3.60;;
69280;SDS011;56392;51.082;17.080;2022-07-04T14:25:00;8.40;;;3.10;;
69280;SDS011;56392;51.082;17.080;2022-07-04T14:30:03;6.57;;;3.13;;
69280;SDS011;56392;51.082;17.080;2022-07-04T14:35:09;8.70;;;2.95;;
69280;SDS011;56392;51.082;17.080;2022-07-04T14:40:12;7.33;;;2.87;;
69280;SDS011;56392;51.082;17.080;2022-07-04T14:45:16;7.78;;;2.90;;
69280;SDS011;56392;51.082;17.080;2022-07-04T14:50:20;9.00;;;3.20;;
69280;SDS011;56392;51.082;17.080;2022-07-04T14:55:22;6.80;;;2.92;;
69280;SDS011;56392;51.082;17.080;2022-07-04T15:00:25;10.20;;;3.07;;
69280;SDS011;56392;51.082;17.080;2022-07-04T15:05:29;8.40;;;2.95;;
69280;SDS011;56392;51.082;17.080;2022-07-04T15:10:32;6.70;;;2.70;;
69280;SDS011;56392;51.082;17.080;2022-07-04T15:15:34;7.30;;;2.80;;
69280;SDS011;56392;51.082;17.080;2022-07-04T15:20:38;9.80;;;2.80;;
69280;SDS011;56392;51.082;17.080;2022-07-04T15:25:58;6.97;;;2.70;;
69280;SDS011;56392;51.082;17.080;2022-07-04T15:31:01;12.63;;;2.87;;
69280;SDS011;56392;51.082;17.080;2022-07-04T15:36:10;7.57;;;2.80;;
69280;SDS011;56392;51.082;17.080;2022-07-04T15:41:13;8.85;;;2.90;;
69280;SDS011;56392;51.082;17.080;2022-07-04T15:46:17;6.97;;;2.75;;
69280;SDS011;56392;51.082;17.080;2022-07-04T15:51:21;7.57;;;2.77;;
69280;SDS011;56392;51.082;17.080;2022-07-04T15:56:24;9.25;;;2.90;;
69280;SDS011;56392;51.082;17.080;2022-07-04T16:01:27;9.75;;;3.17;;
69280;SDS011;56392;51.082;17.080;2022-07-04T16:06:31;8.53;;;2.97;;
69280;SDS011;56392;51.082;17.080;2022-07-04T16:11:34;6.55;;;2.90;;
69280;SDS011;56392;51.082;17.080;2022-07-04T16:16:36;8.32;;;2.83;;
69280;SDS011;56392;51.082;17.080;2022-07-04T16:21:41;8.57;;;3.07;;
69280;SDS011;56392;51.082;17.080;2022-07-04T16:26:43;7.22;;;3.03;;
69280;SDS011;56392;51.082;17.080;2022-07-04T16:31:47;12.55;;;3.05;;
69280;SDS011;56392;51.082;17.080;2022-07-04T16:36:51;7.57;;;2.97;;
69280;SDS011;56392;51.082;17.080;2022-07-04T16:41:54;8.37;;;3.27;;
69280;SDS011;56392;51.082;17.080;2022-07-04T16:46:56;8.52;;;3.13;;
69280;SDS011;56392;51.082;17.080;2022-07-04T16:52:00;9.25;;;3.00;;
69280;SDS011;56392;51.082;17.080;2022-07-04T16:57:03;11.73;;;3.40;;
69280;SDS011;56392;51.082;17.080;2022-07-04T17:02:07;10.55;;;3.80;;
69280;SDS011;56392;51.082;17.080;2022-07-04T17:07:11;16.15;;;3.92;;
69280;SDS011;56392;51.082;17.080;2022-07-04T17:12:13;11.60;;;4.03;;
69280;SDS011;56392;51.082;17.080;2022-07-04T17:17:16;14.85;;;3.50;;
69280;SDS011;56392;51.082;17.080;2022-07-04T17:22:22;11.02;;;3.88;;
69280;SDS011;56392;51.082;17.080;2022-07-04T17:27:25;8.02;;;3.38;;
69280;SDS011;56392;51.082;17.080;2022-07-04T17:32:28;9.87;;;3.23;;
69280;SDS011;56392;51.082;17.080;2022-07-04T17:37:32;8.55;;;3.20;;
69280;SDS011;56392;51.082;17.080;2022-07-04T17:42:35;8.35;;;3.33;;
69280;SDS011;56392;51.082;17.080;2022-07-04T17:47:38;16.67;;;3.80;;
69280;SDS011;56392;51.082;17.080;2022-07-04T17:52:42;10.43;;;3.55;;
69280;SDS011;56392;51.082;17.080;2022-07-04T17:57:45;8.80;;;3.28;;
69280;SDS011;56392;51.082;17.080;2022-07-04T18:02:47;9.37;;;3.40;;
69280;SDS011;56392;51.082;17.080;2022-07-04T18:07:52;31.23;;;6.38;;
69280;SDS011;56392;51.082;17.080;2022-07-04T18:12:54;12.48;;;3.83;;
69280;SDS011;56392;51.082;17.080;2022-07-04T18:17:57;10.43;;;4.28;;
69280;SDS011;56392;51.082;17.080;2022-07-04T18:23:01;10.40;;;4.33;;
69280;SDS011;56392;51.082;17.080;2022-07-04T18:28:04;10.43;;;4.20;;
69280;SDS011;56392;51.082;17.080;2022-07-04T18:33:07;9.65;;;4.07;;
69280;SDS011;56392;51.082;17.080;2022-07-04T18:38:13;9.87;;;4.30;;
69280;SDS011;56392;51.082;17.080;2022-07-04T18:43:21;9.20;;;4.47;;
69280;SDS011;56392;51.082;17.080;2022-07-04T18:48:27;10.40;;;4.90;;
69280;SDS011;56392;51.082;17.080;2022-07-04T18:53:33;9.13;;;4.40;;
69280;SDS011;56392;51.082;17.080;2022-07-04T18:58:37;8.70;;;4.78;;
69280;SDS011;56392;51.082;17.080;2022-07-04T19:03:40;10.27;;;4.65;;
69280;SDS011;56392;51.082;17.080;2022-07-04T19:08:44;8.95;;;4.60;;
69280;SDS011;56392;51.082;17.080;2022-07-04T19:13:47;7.63;;;4.50;;
69280;SDS011;56392;51.082;17.080;2022-07-04T19:18:49;7.82;;;3.88;;
69280;SDS011;56392;51.082;17.080;2022-07-04T19:23:53;8.23;;;3.92;;
69280;SDS011;56392;51.082;17.080;2022-07-04T19:28:56;8.60;;;4.17;;
69280;SDS011;56392;51.082;17.080;2022-07-04T19:34:00;8.38;;;4.20;;
69280;SDS011;56392;51.082;17.080;2022-07-04T19:39:09;9.98;;;4.60;;
69280;SDS011;56392;51.082;17.080;2022-07-04T19:44:11;9.37;;;4.60;;
69280;SDS011;56392;51.082;17.080;2022-07-04T19:49:15;8.75;;;4.35;;
69280;SDS011;56392;51.082;17.080;2022-07-04T19:54:20;7.97;;;4.40;;
69280;SDS011;56392;51.082;17.080;2022-07-04T19:59:23;10.93;;;5.05;;
69280;SDS011;56392;51.082;17.080;2022-07-04T20:04:26;9.33;;;5.30;;
69280;SDS011;56392;51.082;17.080;2022-07-04T20:09:30;9.07;;;5.43;;
69280;SDS011;56392;51.082;17.080;2022-07-04T20:14:33;11.68;;;5.57;;
69280;SDS011;56392;51.082;17.080;2022-07-04T20:19:36;8.67;;;5.37;;
69280;SDS011;56392;51.082;17.080;2022-07-04T20:24:40;11.75;;;5.30;;
69280;SDS011;56392;51.082;17.080;2022-07-04T20:29:44;10.40;;;5.88;;
69280;SDS011;56392;51.082;17.080;2022-07-04T20:34:51;8.60;;;5.60;;
69280;SDS011;56392;51.082;17.080;2022-07-04T20:40:00;11.13;;;5.88;;
69280;SDS011;56392;51.082;17.080;2022-07-04T20:45:03;9.48;;;5.60;;
69280;SDS011;56392;51.082;17.080;2022-07-04T20:50:06;8.77;;;5.40;;
69280;SDS011;56392;51.082;17.080;2022-07-04T20:55:10;10.30;;;5.97;;
69280;SDS011;56392;51.082;17.080;2022-07-04T21:00:13;9.80;;;6.25;;
69280;SDS011;56392;51.082;17.080;2022-07-04T21:05:17;11.70;;;6.50;;
69280;SDS011;56392;51.082;17.080;2022-07-04T21:10:24;10.33;;;6.23;;
69280;SDS011;56392;51.082;17.080;2022-07-04T21:15:27;10.25;;;6.57;;
69280;SDS011;56392;51.082;17.080;2022-07-04T21:20:30;9.52;;;6.50;;
69280;SDS011;56392;51.082;17.080;2022-07-04T21:25:35;10.90;;;6.57;;
69280;SDS011;56392;51.082;17.080;2022-07-04T21:30:37;10.63;;;6.50;;
69280;SDS011;56392;51.082;17.080;2022-07-04T21:35:40;11.65;;;6.85;;
69280;SDS011;56392;51.082;17.080;2022-07-04T21:40:44;11.85;;;7.35;;
69280;SDS011;56392;51.082;17.080;2022-07-04T21:45:47;13.63;;;7.30;;
69280;SDS011;56392;51.082;17.080;2022-07-04T21:50:49;12.02;;;7.40;;
69280;SDS011;56392;51.082;17.080;2022-07-04T21:55:53;12.88;;;7.35;;
69280;SDS011;56392;51.082;17.080;2022-07-04T22:00:56;12.53;;;7.50;;
69280;SDS011;56392;51.082;17.080;2022-07-04T22:05:59;10.20;;;7.22;;
69280;SDS011;56392;51.082;17.080;2022-07-04T22:11:03;10.43;;;7.10;;
69280;SDS011;56392;51.082;17.080;2022-07-04T22:16:06;10.97;;;7.43;;
69280;SDS011;56392;51.082;17.080;2022-07-04T22:21:08;12.88;;;7.35;;
69280;SDS011;56392;51.082;17.080;2022-07-04T22:26:13;10.63;;;7.43;;
69280;SDS011;56392;51.082;17.080;2022-07-04T22:31:16;11.35;;;7.40;;
69280;SDS011;56392;51.082;17.080;2022-07-04T22:36:19;11.20;;;7.00;;
69280;SDS011;56392;51.082;17.080;2022-07-04T22:41:22;10.65;;;7.60;;
69280;SDS011;56392;51.082;17.080;2022-07-04T22:46:25;11.00;;;7.63;;
69280;SDS011;56392;51.082;17.080;2022-07-04T22:51:28;11.03;;;8.00;;
69280;SDS011;56392;51.082;17.080;2022-07-04T22:56:32;11.52;;;7.65;;
69280;SDS011;56392;51.082;17.080;2022-07-04T23:01:35;10.73;;;6.97;;
69280;SDS011;56392;51.082;17.080;2022-07-04T23:06:37;10.50;;;7.63;;
69280;SDS011;56392;51.082;17.080;2022-07-04T23:11:42;12.48;;;7.28;;
69280;SDS011;56392;51.082;17.080;2022-07-04T23:16:44;10.50;;;7.65;;
69280;SDS011;56392;51.082;17.080;2022-07-04T23:21:47;12.73;;;8.10;;
69280;SDS011;56392;51.082;17.080;2022-07-04T23:26:51;11.83;;;7.70;;
69280;SDS011;56392;51.082;17.080;2022-07-04T23:31:54;11.43;;;6.85;;
69280;SDS011;56392;51.082;17.080;2022-07-04T23:36:57;10.43;;;7.60;;
69280;SDS011;56392;51.082;17.080;2022-07-04T23:42:01;9.43;;;7.13;;
69280;SDS011;56392;51.082;17.080;2022-07-04T23:47:03;10.23;;;7.55;;
69280;SDS011;56392;51.082;17.080;2022-07-04T23:52:06;11.27;;;7.60;;
69280;SDS011;56392;51.082;17.080;2022-07-04T23:57:10;11.20;;;7.03;;
